createdAt,value
2018-11-02T00:00:50.405Z,0
2018-11-02T00:01:52.428Z,0
2018-11-02T00:02:54.447Z,0
2018-11-02T00:03:56.862Z,0
2018-11-02T00:04:59.176Z,0
2018-11-02T00:06:01.636Z,0
2018-11-02T00:07:04.026Z,0
2018-11-02T00:08:06.129Z,0
2018-11-02T00:09:08.152Z,0
2018-11-02T00:10:10.179Z,0
2018-11-02T00:11:12.211Z,0
2018-11-02T00:12:14.324Z,0
2018-11-02T00:13:16.641Z,0
2018-11-02T00:14:18.670Z,0
2018-11-02T00:15:20.688Z,0
2018-11-02T00:16:23.398Z,0
2018-11-02T00:17:25.417Z,0
2018-11-02T00:18:27.454Z,0
2018-11-02T00:19:30.146Z,0
2018-11-02T00:20:32.172Z,0
2018-11-02T00:21:34.195Z,0
2018-11-02T00:22:36.205Z,0
2018-11-02T00:23:38.240Z,0
2018-11-02T00:24:40.264Z,0
2018-11-02T00:25:42.291Z,0
2018-11-02T00:26:44.647Z,0
2018-11-02T00:27:46.681Z,0
2018-11-02T00:28:48.696Z,0
2018-11-02T00:29:50.717Z,0
2018-11-02T00:30:52.739Z,0
2018-11-02T00:31:55.441Z,0
2018-11-02T00:32:57.354Z,0
2018-11-02T00:33:59.392Z,0
2018-11-02T00:35:01.692Z,0
2018-11-02T00:36:04.023Z,0
2018-11-02T00:37:06.341Z,0
2018-11-02T00:38:08.363Z,0
2018-11-02T00:39:10.387Z,0
2018-11-02T00:40:12.409Z,0
2018-11-02T00:41:14.424Z,0
2018-11-02T00:42:16.448Z,0
2018-11-02T00:43:18.501Z,0
2018-11-02T00:44:20.868Z,0
2018-11-02T00:45:22.887Z,0
2018-11-02T00:46:24.908Z,0
2018-11-02T00:47:26.931Z,0
2018-11-02T00:48:29.328Z,0
2018-11-02T00:49:31.346Z,0
2018-11-02T00:50:33.759Z,0
2018-11-02T00:51:36.169Z,0
2018-11-02T00:52:38.592Z,0
2018-11-02T00:53:40.599Z,0
2018-11-02T00:54:42.632Z,0
2018-11-02T00:55:44.641Z,0
2018-11-02T00:56:46.671Z,0
2018-11-02T00:57:48.970Z,0
2018-11-02T00:58:51.463Z,0
2018-11-02T00:59:53.457Z,0
2018-11-02T01:00:55.490Z,0
2018-11-02T01:01:57.509Z,0
2018-11-02T01:02:59.815Z,0
2018-11-02T01:04:02.133Z,0
2018-11-02T01:05:04.144Z,0
2018-11-02T01:06:06.461Z,0
2018-11-02T01:07:08.482Z,0
2018-11-02T01:08:10.497Z,0
2018-11-02T01:09:12.518Z,0
2018-11-02T01:10:14.559Z,0
2018-11-02T01:11:16.565Z,0
2018-11-02T01:12:18.590Z,0
2018-11-02T01:13:20.612Z,0
2018-11-02T01:14:22.624Z,0
2018-11-02T01:15:24.644Z,0
2018-11-02T01:16:26.690Z,0
2018-11-02T01:17:28.690Z,0
2018-11-02T01:18:31.087Z,0
2018-11-02T01:19:33.106Z,0
2018-11-02T01:20:35.124Z,0
2018-11-02T01:21:37.159Z,0
2018-11-02T01:22:39.183Z,0
2018-11-02T01:23:41.206Z,0
2018-11-02T01:24:43.220Z,0
2018-11-02T01:25:45.240Z,0
2018-11-02T01:26:47.267Z,0
2018-11-02T01:27:49.966Z,0
2018-11-02T01:28:52.006Z,0
2018-11-02T01:29:54.021Z,0
2018-11-02T01:30:56.036Z,0
2018-11-02T01:31:58.963Z,0
2018-11-02T01:33:00.982Z,0
2018-11-02T01:34:03.306Z,0
2018-11-02T01:35:05.324Z,0
2018-11-02T01:36:07.641Z,0
2018-11-02T01:37:09.957Z,0
2018-11-02T01:38:12.392Z,0
2018-11-02T01:39:14.416Z,0
2018-11-02T01:40:16.826Z,0
2018-11-02T01:41:19.510Z,0
2018-11-02T01:42:21.525Z,0
2018-11-02T01:43:23.845Z,0
2018-11-02T01:44:25.866Z,0
2018-11-02T01:45:28.215Z,0
2018-11-02T01:46:30.244Z,0
2018-11-02T01:47:33.246Z,0
2018-11-02T01:48:35.651Z,0
2018-11-02T01:49:37.677Z,0
2018-11-02T01:50:39.693Z,0
2018-11-02T01:51:42.013Z,0
2018-11-02T01:52:44.033Z,0
2018-11-02T01:53:46.057Z,0
2018-11-02T01:54:48.083Z,0
2018-11-02T01:55:50.104Z,0
2018-11-02T01:56:52.124Z,0
2018-11-02T01:57:54.447Z,0
2018-11-02T01:58:56.771Z,0
2018-11-02T01:59:58.784Z,0
2018-11-02T02:01:00.806Z,0
2018-11-02T02:02:03.218Z,0
2018-11-02T02:03:05.229Z,0
2018-11-02T02:04:07.255Z,0
2018-11-02T02:05:09.273Z,0
2018-11-02T02:06:11.295Z,0
2018-11-02T02:07:13.600Z,0
2018-11-02T02:08:15.629Z,0
2018-11-02T02:09:17.648Z,0
2018-11-02T02:10:19.966Z,0
2018-11-02T02:11:22.309Z,0
2018-11-02T02:12:24.322Z,0
2018-11-02T02:13:27.420Z,0
2018-11-02T02:14:29.163Z,0
2018-11-02T02:15:31.185Z,0
2018-11-02T02:16:33.585Z,0
2018-11-02T02:17:35.606Z,0
2018-11-02T02:18:37.621Z,0
2018-11-02T02:19:39.959Z,0
2018-11-02T02:20:41.987Z,0
2018-11-02T02:21:44.006Z,0
2018-11-02T02:22:46.017Z,0
2018-11-02T02:23:48.049Z,0
2018-11-02T02:24:50.067Z,0
2018-11-02T02:25:52.088Z,0
2018-11-02T02:26:54.125Z,0
2018-11-02T02:27:56.126Z,0
2018-11-02T02:28:58.148Z,0
2018-11-02T02:30:00.166Z,0
2018-11-02T02:31:02.571Z,0
2018-11-02T02:32:04.586Z,0
2018-11-02T02:33:06.611Z,0
2018-11-02T02:34:08.633Z,0
2018-11-02T02:35:10.647Z,0
2018-11-02T02:36:12.674Z,0
2018-11-02T02:37:14.696Z,0
2018-11-02T02:38:16.714Z,0
2018-11-02T02:39:18.734Z,0
2018-11-02T02:40:20.771Z,0
2018-11-02T02:41:23.172Z,0
2018-11-02T02:42:25.191Z,0
2018-11-02T02:43:27.216Z,0
2018-11-02T02:44:29.249Z,0
2018-11-02T02:45:31.263Z,0
2018-11-02T02:46:33.283Z,0
2018-11-02T02:47:35.309Z,0
2018-11-02T02:48:37.328Z,0
2018-11-02T02:49:39.782Z,0
2018-11-02T02:50:42.090Z,0
2018-11-02T02:51:44.406Z,0
2018-11-02T02:52:46.439Z,0
2018-11-02T02:53:48.456Z,0
2018-11-02T02:54:50.473Z,0
2018-11-02T02:55:52.496Z,0
2018-11-02T02:56:54.524Z,0
2018-11-02T02:57:56.927Z,0
2018-11-02T02:58:59.654Z,0
2018-11-02T03:00:01.646Z,0
2018-11-02T03:01:04.402Z,0
2018-11-02T03:02:06.345Z,0
2018-11-02T03:03:08.368Z,0
2018-11-02T03:04:10.780Z,0
2018-11-02T03:05:13.093Z,0
2018-11-02T03:06:15.112Z,0
2018-11-02T03:07:17.137Z,0
2018-11-02T03:08:19.157Z,0
2018-11-02T03:09:21.840Z,0
2018-11-02T03:10:24.346Z,0
2018-11-02T03:11:26.666Z,0
2018-11-02T03:12:28.684Z,0
2018-11-02T03:13:30.717Z,0
2018-11-02T03:14:32.729Z,0
2018-11-02T03:15:34.750Z,0
2018-11-02T03:16:36.766Z,0
2018-11-02T03:17:38.775Z,0
2018-11-02T03:18:41.309Z,0
2018-11-02T03:19:43.244Z,0
2018-11-02T03:20:45.260Z,0
2018-11-02T03:21:47.279Z,0
2018-11-02T03:22:49.307Z,0
2018-11-02T03:23:51.325Z,0
2018-11-02T03:24:53.742Z,0
2018-11-02T03:25:56.143Z,0
2018-11-02T03:26:58.155Z,0
2018-11-02T03:28:00.177Z,0
2018-11-02T03:29:02.980Z,0
2018-11-02T03:30:05.286Z,0
2018-11-02T03:31:07.296Z,0
2018-11-02T03:32:09.705Z,0
2018-11-02T03:33:12.026Z,0
2018-11-02T03:34:14.058Z,0
2018-11-02T03:35:16.358Z,0
2018-11-02T03:36:18.377Z,0
2018-11-02T03:37:20.390Z,0
2018-11-02T03:38:22.421Z,0
2018-11-02T03:39:24.438Z,0
2018-11-02T03:40:26.453Z,0
2018-11-02T03:41:28.761Z,0
2018-11-02T03:42:30.772Z,0
2018-11-02T03:43:32.801Z,0
2018-11-02T03:44:34.822Z,0
2018-11-02T03:45:36.841Z,0
2018-11-02T03:46:38.851Z,0
2018-11-02T03:47:40.874Z,0
2018-11-02T03:48:42.894Z,0
2018-11-02T03:49:44.913Z,0
2018-11-02T03:50:47.240Z,0
2018-11-02T03:51:49.255Z,0
2018-11-02T03:52:51.273Z,0
2018-11-02T03:53:53.301Z,0
2018-11-02T03:54:55.719Z,0
2018-11-02T03:55:59.600Z,0
2018-11-02T03:57:01.832Z,0
2018-11-02T03:58:03.930Z,0
2018-11-02T03:59:05.953Z,0
2018-11-02T04:00:07.963Z,0
2018-11-02T04:01:09.988Z,0
2018-11-02T04:02:12.008Z,0
2018-11-02T04:03:14.633Z,0
2018-11-02T04:04:16.943Z,0
2018-11-02T04:05:18.964Z,0
2018-11-02T04:06:21.660Z,0
2018-11-02T04:07:24.365Z,0
2018-11-02T04:08:26.670Z,0
2018-11-02T04:09:28.783Z,0
2018-11-02T04:10:30.703Z,0
2018-11-02T04:11:32.734Z,0
2018-11-02T04:12:34.746Z,0
2018-11-02T04:13:37.065Z,0
2018-11-02T04:14:39.090Z,0
2018-11-02T04:15:41.396Z,0
2018-11-02T04:16:43.418Z,0
2018-11-02T04:17:45.434Z,0
2018-11-02T04:18:47.464Z,0
2018-11-02T04:19:49.469Z,0
2018-11-02T04:20:51.484Z,0
2018-11-02T04:21:53.501Z,0
2018-11-02T04:22:55.520Z,0
2018-11-02T04:23:58.639Z,0
2018-11-02T04:25:00.667Z,0
2018-11-02T04:26:02.690Z,0
2018-11-02T04:27:04.710Z,0
2018-11-02T04:28:06.728Z,0
2018-11-02T04:29:09.045Z,0
2018-11-02T04:30:11.371Z,0
2018-11-02T04:31:13.389Z,0
2018-11-02T04:32:15.405Z,0
2018-11-02T04:33:17.440Z,0
2018-11-02T04:34:19.449Z,0
2018-11-02T04:35:21.464Z,0
2018-11-02T04:36:23.911Z,0
2018-11-02T04:37:25.927Z,0
2018-11-02T04:38:27.948Z,0
2018-11-02T04:39:30.688Z,0
2018-11-02T04:40:32.997Z,0
2018-11-02T04:41:35.616Z,0
2018-11-02T04:42:37.639Z,0
2018-11-02T04:43:39.712Z,0
2018-11-02T04:44:41.718Z,0
2018-11-02T04:45:43.747Z,0
2018-11-02T04:46:46.188Z,0
2018-11-02T04:47:48.226Z,0
2018-11-02T04:48:50.236Z,0
2018-11-02T04:49:52.539Z,0
2018-11-02T04:50:55.608Z,0
2018-11-02T04:51:57.906Z,0
2018-11-02T04:52:59.938Z,0
2018-11-02T04:54:02.253Z,0
2018-11-02T04:55:04.275Z,0
2018-11-02T04:56:06.294Z,0
2018-11-02T04:57:08.304Z,0
2018-11-02T04:58:10.335Z,0
2018-11-02T04:59:13.040Z,0
2018-11-02T05:00:15.052Z,0
2018-11-02T05:01:17.068Z,0
2018-11-02T05:02:19.091Z,0
2018-11-02T05:03:21.113Z,0
2018-11-02T05:04:23.148Z,0
2018-11-02T05:05:25.168Z,0
2018-11-02T05:06:27.184Z,0
2018-11-02T05:07:29.202Z,0
2018-11-02T05:08:31.618Z,0
2018-11-02T05:09:34.259Z,0
2018-11-02T05:10:36.565Z,0
2018-11-02T05:11:39.218Z,0
2018-11-02T05:12:41.241Z,0
2018-11-02T05:13:43.248Z,0
2018-11-02T05:14:45.265Z,0
2018-11-02T05:15:47.284Z,0
2018-11-02T05:16:49.309Z,0
2018-11-02T05:17:51.338Z,0
2018-11-02T05:18:53.633Z,0
2018-11-02T05:19:55.958Z,0
2018-11-02T05:20:58.370Z,0
2018-11-02T05:22:00.383Z,0
2018-11-02T05:23:02.688Z,0
2018-11-02T05:24:04.705Z,0
2018-11-02T05:25:07.014Z,0
2018-11-02T05:26:09.338Z,0
2018-11-02T05:27:11.642Z,0
2018-11-02T05:28:13.950Z,0
2018-11-02T05:29:16.573Z,0
2018-11-02T05:30:18.971Z,0
2018-11-02T05:31:20.993Z,0
2018-11-02T05:32:23.301Z,0
2018-11-02T05:33:25.703Z,0
2018-11-02T05:34:27.720Z,0
2018-11-02T05:35:29.744Z,0
2018-11-02T05:36:32.046Z,0
2018-11-02T05:37:34.067Z,0
2018-11-02T05:38:36.387Z,0
2018-11-02T05:39:38.401Z,0
2018-11-02T05:40:40.413Z,0
2018-11-02T05:41:42.431Z,0
2018-11-02T05:42:44.446Z,0
2018-11-02T05:43:46.847Z,0
2018-11-02T05:44:48.868Z,0
2018-11-02T05:45:51.267Z,0
2018-11-02T05:46:53.678Z,0
2018-11-02T05:47:55.700Z,0
2018-11-02T05:48:57.715Z,0
2018-11-02T05:49:59.729Z,0
2018-11-02T05:51:02.049Z,0
2018-11-02T05:52:04.083Z,0
2018-11-02T05:53:06.088Z,0
2018-11-02T05:54:08.622Z,0
2018-11-02T05:55:10.574Z,0
2018-11-02T05:56:12.590Z,0
2018-11-02T05:57:14.643Z,0
2018-11-02T05:58:16.626Z,0
2018-11-02T05:59:18.654Z,0
2018-11-02T06:00:20.671Z,0
2018-11-02T06:01:22.707Z,0
2018-11-02T06:02:25.009Z,0
2018-11-02T06:03:27.016Z,0
2018-11-02T06:04:29.076Z,0
2018-11-02T06:05:31.405Z,0
2018-11-02T06:06:33.419Z,0
2018-11-02T06:07:35.754Z,0
2018-11-02T06:08:38.085Z,0
2018-11-02T06:09:40.113Z,1
2018-11-02T06:10:42.127Z,1
2018-11-02T06:11:44.442Z,1
2018-11-02T06:12:46.458Z,1
2018-11-02T06:13:48.480Z,1
2018-11-02T06:14:51.211Z,1
2018-11-02T06:15:53.503Z,1
2018-11-02T06:16:56.547Z,1
2018-11-02T06:17:58.426Z,1
2018-11-02T06:19:00.737Z,2
2018-11-02T06:20:02.763Z,2
2018-11-02T06:21:04.784Z,2
2018-11-02T06:22:06.798Z,2
2018-11-02T06:23:08.816Z,2
2018-11-02T06:24:12.278Z,3
2018-11-02T06:25:14.474Z,3
2018-11-02T06:26:16.884Z,3
2018-11-02T06:27:19.195Z,4
2018-11-02T06:28:21.216Z,4
2018-11-02T06:29:23.231Z,4
2018-11-02T06:30:26.036Z,4
2018-11-02T06:31:28.430Z,4
2018-11-02T06:32:30.501Z,4
2018-11-02T06:33:32.805Z,5
2018-11-02T06:34:34.827Z,5
2018-11-02T06:35:37.233Z,5
2018-11-02T06:36:39.248Z,5
2018-11-02T06:37:41.273Z,5
2018-11-02T06:38:43.414Z,6
2018-11-02T06:39:45.316Z,6
2018-11-02T06:40:47.336Z,7
2018-11-02T06:41:49.363Z,8
2018-11-02T06:42:51.385Z,8
2018-11-02T06:43:53.410Z,9
2018-11-02T06:44:55.527Z,9
2018-11-02T06:45:57.449Z,9
2018-11-02T06:46:59.771Z,9
2018-11-02T06:48:01.832Z,9
2018-11-02T06:49:03.808Z,10
2018-11-02T06:50:05.842Z,10
2018-11-02T06:51:09.075Z,12
2018-11-02T06:52:11.087Z,12
2018-11-02T06:53:13.116Z,12
2018-11-02T06:54:15.134Z,13
2018-11-02T06:55:17.155Z,13
2018-11-02T06:56:19.171Z,13
2018-11-02T06:57:21.500Z,13
2018-11-02T06:58:23.529Z,14
2018-11-02T06:59:26.126Z,18
2018-11-02T07:00:28.223Z,19
2018-11-02T07:01:30.117Z,27
2018-11-02T07:02:32.144Z,33
2018-11-02T07:03:34.164Z,34
2018-11-02T07:04:36.474Z,35
2018-11-02T07:05:38.870Z,35
2018-11-02T07:06:40.892Z,36
2018-11-02T07:07:43.861Z,38
2018-11-02T07:08:45.669Z,41
2018-11-02T07:09:47.700Z,41
2018-11-02T07:10:49.713Z,41
2018-11-02T07:11:51.736Z,43
2018-11-02T07:12:53.764Z,44
2018-11-02T07:13:55.787Z,44
2018-11-02T07:14:57.806Z,44
2018-11-02T07:15:59.823Z,45
2018-11-02T07:17:01.845Z,47
2018-11-02T07:18:03.863Z,50
2018-11-02T07:19:05.891Z,50
2018-11-02T07:20:07.910Z,47
2018-11-02T07:21:10.209Z,41
2018-11-02T07:22:12.240Z,47
2018-11-02T07:23:14.260Z,55
2018-11-02T07:24:16.282Z,57
2018-11-02T07:25:19.021Z,57
2018-11-02T07:26:21.207Z,60
2018-11-02T07:27:23.230Z,62
2018-11-02T07:28:25.253Z,63
2018-11-02T07:29:27.280Z,65
2018-11-02T07:30:29.295Z,67
2018-11-02T07:31:31.324Z,67
2018-11-02T07:32:33.348Z,71
2018-11-02T07:33:35.366Z,72
2018-11-02T07:34:38.201Z,72
2018-11-02T07:35:40.623Z,67
2018-11-02T07:36:42.676Z,72
2018-11-02T07:37:45.007Z,76
2018-11-02T07:38:47.038Z,82
2018-11-02T07:39:49.060Z,79
2018-11-02T07:40:51.082Z,81
2018-11-02T07:41:53.109Z,85
2018-11-02T07:42:55.511Z,88
2018-11-02T07:43:57.845Z,90
2018-11-02T07:45:00.169Z,85
2018-11-02T07:46:02.487Z,84
2018-11-02T07:47:04.511Z,86
2018-11-02T07:48:06.528Z,88
2018-11-02T07:49:08.550Z,91
2018-11-02T07:50:10.571Z,94
2018-11-02T07:51:12.594Z,91
2018-11-02T07:52:14.622Z,87
2018-11-02T07:53:16.939Z,87
2018-11-02T07:54:18.959Z,89
2018-11-02T07:55:21.530Z,91
2018-11-02T07:56:23.552Z,90
2018-11-02T07:57:25.576Z,93
2018-11-02T07:58:27.634Z,92
2018-11-02T07:59:29.930Z,95
2018-11-02T08:00:32.635Z,98
2018-11-02T08:01:34.780Z,97
2018-11-02T08:02:36.690Z,99
2018-11-02T08:03:38.702Z,103
2018-11-02T08:04:41.035Z,109
2018-11-02T08:05:43.366Z,108
2018-11-02T08:06:45.389Z,110
2018-11-02T08:07:47.811Z,109
2018-11-02T08:08:49.839Z,109
2018-11-02T08:09:51.869Z,109
2018-11-02T08:10:53.896Z,110
2018-11-02T08:11:55.937Z,115
2018-11-02T08:12:58.633Z,113
2018-11-02T08:14:00.658Z,118
2018-11-02T08:15:02.686Z,122
2018-11-02T08:16:04.705Z,122
2018-11-02T08:17:06.736Z,116
2018-11-02T08:18:09.048Z,118
2018-11-02T08:19:11.522Z,118
2018-11-02T08:20:13.558Z,124
2018-11-02T08:21:15.590Z,128
2018-11-02T08:22:17.621Z,129
2018-11-02T08:23:19.650Z,133
2018-11-02T08:24:22.021Z,136
2018-11-02T08:25:24.018Z,135
2018-11-02T08:26:26.431Z,141
2018-11-02T08:27:28.500Z,136
2018-11-02T08:28:30.497Z,141
2018-11-02T08:29:32.910Z,141
2018-11-02T08:30:35.326Z,140
2018-11-02T08:31:37.368Z,138
2018-11-02T08:32:39.384Z,135
2018-11-02T08:33:41.411Z,136
2018-11-02T08:34:43.823Z,137
2018-11-02T08:35:45.857Z,135
2018-11-02T08:36:47.872Z,139
2018-11-02T08:37:50.192Z,140
2018-11-02T08:38:52.224Z,138
2018-11-02T08:39:54.531Z,146
2018-11-02T08:40:57.157Z,103
2018-11-02T08:41:59.180Z,157
2018-11-02T08:43:01.211Z,163
2018-11-02T08:44:03.524Z,161
2018-11-02T08:45:05.565Z,127
2018-11-02T08:46:07.592Z,133
2018-11-02T08:47:09.623Z,41
2018-11-02T08:48:11.664Z,33
2018-11-02T08:49:13.732Z,91
2018-11-02T08:50:15.721Z,147
2018-11-02T08:51:17.751Z,149
2018-11-02T08:52:20.861Z,145
2018-11-02T08:53:22.719Z,145
2018-11-02T08:54:24.759Z,146
2018-11-02T08:55:26.789Z,148
2018-11-02T08:56:28.823Z,150
2018-11-02T08:57:31.245Z,152
2018-11-02T08:58:34.160Z,153
2018-11-02T08:59:37.537Z,154
2018-11-02T09:00:40.265Z,156
2018-11-02T09:01:42.596Z,155
2018-11-02T09:02:44.629Z,149
2018-11-02T09:03:46.666Z,158
2018-11-02T09:04:49.036Z,155
2018-11-02T09:05:51.029Z,155
2018-11-02T09:06:53.065Z,173
2018-11-02T09:07:55.378Z,186
2018-11-02T09:08:57.412Z,187
2018-11-02T09:09:59.434Z,182
2018-11-02T09:11:01.472Z,176
2018-11-02T09:12:03.533Z,167
2018-11-02T09:13:05.824Z,171
2018-11-02T09:14:08.145Z,169
2018-11-02T09:15:10.560Z,166
2018-11-02T09:16:13.160Z,174
2018-11-02T09:17:15.196Z,165
2018-11-02T09:18:17.830Z,179
2018-11-02T09:19:20.385Z,82
2018-11-02T09:20:22.649Z,87
2018-11-02T09:21:24.683Z,119
2018-11-02T09:22:26.706Z,71
2018-11-02T09:23:28.744Z,54
2018-11-02T09:24:30.774Z,42
2018-11-02T09:25:32.796Z,37
2018-11-02T09:26:35.174Z,40
2018-11-02T09:27:37.268Z,43
2018-11-02T09:28:39.246Z,37
2018-11-02T09:29:41.286Z,32
2018-11-02T09:30:43.321Z,24
2018-11-02T09:31:45.351Z,22
2018-11-02T09:32:47.771Z,25
2018-11-02T09:33:49.806Z,23
2018-11-02T09:34:51.829Z,23
2018-11-02T09:35:53.861Z,22
2018-11-02T09:36:55.895Z,25
2018-11-02T09:37:58.311Z,23
2018-11-02T09:39:00.353Z,25
2018-11-02T09:40:02.677Z,32
2018-11-02T09:41:04.706Z,37
2018-11-02T09:42:06.730Z,36
2018-11-02T09:43:08.770Z,40
2018-11-02T09:44:10.803Z,48
2018-11-02T09:45:13.130Z,47
2018-11-02T09:46:15.162Z,45
2018-11-02T09:47:17.502Z,35
2018-11-02T09:48:19.536Z,31
2018-11-02T09:49:21.570Z,28
2018-11-02T09:50:23.901Z,28
2018-11-02T09:51:26.411Z,27
2018-11-02T09:52:28.813Z,24
2018-11-02T09:53:30.843Z,23
2018-11-02T09:54:32.872Z,21
2018-11-02T09:55:35.301Z,17
2018-11-02T09:56:37.321Z,19
2018-11-02T09:57:39.408Z,19
2018-11-02T09:58:41.681Z,16
2018-11-02T09:59:43.710Z,17
2018-11-02T10:00:45.735Z,14
2018-11-02T10:01:47.762Z,16
2018-11-02T10:02:50.172Z,13
2018-11-02T10:03:52.204Z,15
2018-11-02T10:04:54.240Z,15
2018-11-02T10:05:56.268Z,16
2018-11-02T10:06:58.583Z,15
2018-11-02T10:08:00.627Z,16
2018-11-02T10:09:02.998Z,16
2018-11-02T10:10:04.995Z,16
2018-11-02T10:11:07.342Z,17
2018-11-02T10:12:09.360Z,15
2018-11-02T10:13:12.346Z,15
2018-11-02T10:14:14.373Z,17
2018-11-02T10:15:16.406Z,17
2018-11-02T10:16:18.436Z,15
2018-11-02T10:17:20.457Z,15
2018-11-02T10:18:23.064Z,12
2018-11-02T10:19:25.095Z,13
2018-11-02T10:20:27.114Z,13
2018-11-02T10:21:29.147Z,14
2018-11-02T10:22:31.174Z,13
2018-11-02T10:23:33.208Z,13
2018-11-02T10:24:35.214Z,13
2018-11-02T10:25:37.248Z,13
2018-11-02T10:26:39.630Z,13
2018-11-02T10:27:42.669Z,13
2018-11-02T10:28:44.708Z,13
2018-11-02T10:29:46.790Z,13
2018-11-02T10:30:49.048Z,13
2018-11-02T10:31:51.471Z,15
2018-11-02T10:32:53.901Z,16
2018-11-02T10:33:55.923Z,13
2018-11-02T10:34:57.954Z,14
2018-11-02T10:36:00.095Z,16
2018-11-02T10:37:02.008Z,19
2018-11-02T10:38:04.036Z,18
2018-11-02T10:39:06.076Z,19
2018-11-02T10:40:08.385Z,19
2018-11-02T10:41:10.423Z,20
2018-11-02T10:42:12.745Z,21
2018-11-02T10:43:14.773Z,25
2018-11-02T10:44:16.856Z,25
2018-11-02T10:45:18.884Z,27
2018-11-02T10:46:20.860Z,25
2018-11-02T10:47:22.887Z,32
2018-11-02T10:48:24.920Z,39
2018-11-02T10:49:27.061Z,47
2018-11-02T10:50:28.974Z,84
2018-11-02T10:51:31.002Z,123
2018-11-02T10:52:33.411Z,116
2018-11-02T10:53:35.439Z,154
2018-11-02T10:54:37.610Z,96
2018-11-02T10:55:39.501Z,239
2018-11-02T10:56:42.001Z,177
2018-11-02T10:57:44.735Z,104
2018-11-02T10:58:47.103Z,99
2018-11-02T10:59:49.132Z,111
2018-11-02T11:00:51.868Z,145
2018-11-02T11:01:53.707Z,113
2018-11-02T11:02:55.728Z,141
2018-11-02T11:03:57.761Z,70
2018-11-02T11:04:59.791Z,72
2018-11-02T11:06:01.828Z,55
2018-11-02T11:07:03.854Z,46
2018-11-02T11:08:06.172Z,48
2018-11-02T11:09:08.578Z,46
2018-11-02T11:10:10.606Z,46
2018-11-02T11:11:13.029Z,52
2018-11-02T11:12:15.760Z,51
2018-11-02T11:13:20.010Z,40
2018-11-02T11:14:21.544Z,43
2018-11-02T11:15:23.582Z,38
2018-11-02T11:16:25.607Z,28
2018-11-02T11:17:27.944Z,23
2018-11-02T11:18:30.344Z,24
2018-11-02T11:19:32.374Z,24
2018-11-02T11:20:34.404Z,26
2018-11-02T11:21:36.856Z,18
2018-11-02T11:22:38.874Z,15
2018-11-02T11:23:40.907Z,15
2018-11-02T11:24:42.954Z,20
2018-11-02T11:25:45.344Z,31
2018-11-02T11:26:47.383Z,51
2018-11-02T11:27:49.704Z,57
2018-11-02T11:28:52.025Z,72
2018-11-02T11:29:54.054Z,150
2018-11-02T11:30:56.096Z,79
2018-11-02T11:31:58.128Z,86
2018-11-02T11:33:00.161Z,75
2018-11-02T11:34:02.579Z,54
2018-11-02T11:35:04.616Z,45
2018-11-02T11:36:06.953Z,46
2018-11-02T11:37:08.984Z,43
2018-11-02T11:38:11.413Z,41
2018-11-02T11:39:13.721Z,46
2018-11-02T11:40:15.746Z,46
2018-11-02T11:41:17.778Z,48
2018-11-02T11:42:19.803Z,40
2018-11-02T11:43:21.834Z,38
2018-11-02T11:44:23.872Z,48
2018-11-02T11:45:25.899Z,63
2018-11-02T11:46:27.922Z,82
2018-11-02T11:47:30.262Z,87
2018-11-02T11:48:32.334Z,121
2018-11-02T11:49:34.708Z,100
2018-11-02T11:50:36.740Z,80
2018-11-02T11:51:38.758Z,65
2018-11-02T11:52:40.785Z,124
2018-11-02T11:53:42.814Z,54
2018-11-02T11:54:45.244Z,63
2018-11-02T11:55:47.264Z,196
2018-11-02T11:56:49.297Z,233
2018-11-02T11:57:51.339Z,266
2018-11-02T11:58:53.754Z,83
2018-11-02T11:59:55.788Z,58
2018-11-02T12:00:58.197Z,31
2018-11-02T12:02:00.619Z,27
2018-11-02T12:03:03.034Z,32
2018-11-02T12:04:05.076Z,157
2018-11-02T12:05:07.102Z,95
2018-11-02T12:06:09.133Z,234
2018-11-02T12:07:11.581Z,243
2018-11-02T12:08:13.602Z,242
2018-11-02T12:09:15.663Z,240
2018-11-02T12:10:19.038Z,240
2018-11-02T12:11:21.457Z,242
2018-11-02T12:12:23.489Z,32
2018-11-02T12:13:26.215Z,230
2018-11-02T12:14:28.246Z,38
2018-11-02T12:15:30.904Z,32
2018-11-02T12:16:32.938Z,37
2018-11-02T12:17:34.968Z,33
2018-11-02T12:18:37.006Z,30
2018-11-02T12:19:39.361Z,28
2018-11-02T12:20:41.418Z,27
2018-11-02T12:21:43.464Z,27
2018-11-02T12:22:45.449Z,28
2018-11-02T12:23:47.475Z,30
2018-11-02T12:24:49.535Z,165
2018-11-02T12:25:51.557Z,42
2018-11-02T12:26:53.590Z,34
2018-11-02T12:27:55.910Z,34
2018-11-02T12:28:58.094Z,193
2018-11-02T12:30:00.669Z,37
2018-11-02T12:31:03.090Z,202
2018-11-02T12:32:05.432Z,38
2018-11-02T12:33:07.456Z,216
2018-11-02T12:34:09.800Z,207
2018-11-02T12:35:11.830Z,47
2018-11-02T12:36:14.156Z,188
2018-11-02T12:37:16.269Z,195
2018-11-02T12:38:18.891Z,191
2018-11-02T12:39:20.923Z,90
2018-11-02T12:40:23.362Z,132
2018-11-02T12:41:25.401Z,50
2018-11-02T12:42:27.714Z,183
2018-11-02T12:43:29.820Z,123
2018-11-02T12:44:31.833Z,75
2018-11-02T12:45:33.865Z,74
2018-11-02T12:46:35.886Z,140
2018-11-02T12:47:37.954Z,181
2018-11-02T12:48:40.141Z,186
2018-11-02T12:49:42.565Z,153
2018-11-02T12:50:44.029Z,214
2018-11-02T12:51:46.445Z,76
2018-11-02T12:52:48.785Z,36
2018-11-02T12:53:50.808Z,40
2018-11-02T12:54:52.841Z,37
2018-11-02T12:55:54.872Z,37
2018-11-02T12:56:56.897Z,40
2018-11-02T12:57:58.975Z,33
2018-11-02T12:59:01.334Z,36
2018-11-02T13:00:03.368Z,37
2018-11-02T13:01:05.396Z,34
2018-11-02T13:02:07.440Z,39
2018-11-02T13:03:09.469Z,40
2018-11-02T13:04:11.811Z,63
2018-11-02T13:05:14.582Z,65
2018-11-02T13:06:16.612Z,40
2018-11-02T13:07:18.651Z,59
2018-11-02T13:08:20.681Z,96
2018-11-02T13:09:22.761Z,69
2018-11-02T13:10:24.740Z,65
2018-11-02T13:11:26.778Z,33
2018-11-02T13:12:29.193Z,39
2018-11-02T13:13:31.233Z,34
2018-11-02T13:14:33.271Z,50
2018-11-02T13:15:35.682Z,47
2018-11-02T13:16:37.716Z,37
2018-11-02T13:17:39.831Z,43
2018-11-02T13:18:42.410Z,71
2018-11-02T13:19:44.384Z,73
2018-11-02T13:20:46.417Z,61
2018-11-02T13:21:49.169Z,102
2018-11-02T13:22:51.723Z,98
2018-11-02T13:23:53.761Z,121
2018-11-02T13:24:55.791Z,34
2018-11-02T13:25:57.953Z,40
2018-11-02T13:27:00.140Z,43
2018-11-02T13:28:02.175Z,38
2018-11-02T13:29:04.212Z,56
2018-11-02T13:30:07.837Z,41
2018-11-02T13:31:09.916Z,25
2018-11-02T13:32:11.879Z,25
2018-11-02T13:33:13.911Z,26
2018-11-02T13:34:15.939Z,25
2018-11-02T13:35:18.549Z,25
2018-11-02T13:36:20.632Z,24
2018-11-02T13:37:23.004Z,24
2018-11-02T13:38:25.041Z,24
2018-11-02T13:39:27.445Z,24
2018-11-02T13:40:29.897Z,23
2018-11-02T13:41:31.932Z,23
2018-11-02T13:42:33.956Z,23
2018-11-02T13:43:36.466Z,22
2018-11-02T13:44:38.421Z,22
2018-11-02T13:45:40.770Z,22
2018-11-02T13:46:43.132Z,22
2018-11-02T13:47:45.221Z,22
2018-11-02T13:48:47.251Z,21
2018-11-02T13:49:49.282Z,21
2018-11-02T13:50:51.322Z,21
2018-11-02T13:51:53.912Z,21
2018-11-02T13:52:55.937Z,21
2018-11-02T13:53:57.972Z,21
2018-11-02T13:55:00.001Z,21
2018-11-02T13:56:02.028Z,20
2018-11-02T13:57:04.066Z,20
2018-11-02T13:58:06.094Z,21
2018-11-02T13:59:08.423Z,20
2018-11-02T14:00:10.918Z,20
2018-11-02T14:01:12.999Z,20
2018-11-02T14:02:15.410Z,20
2018-11-02T14:03:17.442Z,21
2018-11-02T14:04:19.484Z,21
2018-11-02T14:05:21.525Z,21
2018-11-02T14:06:23.551Z,21
2018-11-02T14:07:25.579Z,20
2018-11-02T14:08:28.006Z,21
2018-11-02T14:09:30.031Z,21
2018-11-02T14:10:32.057Z,22
2018-11-02T14:11:34.688Z,22
2018-11-02T14:12:36.584Z,22
2018-11-02T14:13:38.640Z,21
2018-11-02T14:14:40.955Z,19
2018-11-02T14:15:42.985Z,18
2018-11-02T14:16:45.452Z,18
2018-11-02T14:17:47.483Z,17
2018-11-02T14:18:49.515Z,17
2018-11-02T14:19:51.544Z,17
2018-11-02T14:20:53.889Z,18
2018-11-02T14:21:55.918Z,18
2018-11-02T14:22:58.232Z,18
2018-11-02T14:24:00.264Z,18
2018-11-02T14:25:02.681Z,20
2018-11-02T14:26:04.708Z,19
2018-11-02T14:27:07.046Z,19
2018-11-02T14:28:10.059Z,19
2018-11-02T14:29:12.573Z,18
2018-11-02T14:30:14.551Z,17
2018-11-02T14:31:16.574Z,17
2018-11-02T14:32:18.604Z,17
2018-11-02T14:33:20.639Z,17
2018-11-02T14:34:22.667Z,18
2018-11-02T14:35:24.698Z,17
2018-11-02T14:36:27.343Z,16
2018-11-02T14:37:29.359Z,17
2018-11-02T14:38:31.395Z,17
2018-11-02T14:39:34.329Z,17
2018-11-02T14:40:36.737Z,18
2018-11-02T14:41:38.859Z,17
2018-11-02T14:42:40.778Z,18
2018-11-02T14:43:43.099Z,17
2018-11-02T14:44:45.426Z,15
2018-11-02T14:45:47.465Z,14
2018-11-02T14:46:49.490Z,15
2018-11-02T14:47:51.529Z,16
2018-11-02T14:48:53.553Z,15
2018-11-02T14:49:55.596Z,14
2018-11-02T14:50:57.622Z,14
2018-11-02T14:51:59.654Z,13
2018-11-02T14:53:01.686Z,13
2018-11-02T14:54:03.703Z,13
2018-11-02T14:55:05.734Z,12
2018-11-02T14:56:07.766Z,11
2018-11-02T14:57:09.789Z,11